Cincinnati, Iowa
Current Conditions -  °F | °C
As of 4:30 AM on Friday 21 Nov 2014 (Local Time) from KTVK Reporting Station
Clear Clear  
Wind Chill:   Ceiling: Unl
Heat Index: 10°   Visibility: 10mi
Dew Point:   Wind: 5mph
Humidity: 92%   Direction: 90°E
Pressure: 30.32"   Gusts: NA
Location:  40.63°N, 92.92°W
Report Text: KTVK 211030Z AUTO 09004KT 10SM CLR M12/M13 A3032 RMK AO2
Loading
Personal Weather Stations






























Interactive Weather Map New forecast layout! Learn more

10-Day Weather Forecast

Advertisements
Track Severe Weather on mobile